Aérodrome :
LOGIN :

S'inscrire | Disclaimer

   EN    FR    IT 

 










Légende :    VFR   VFR Marginal   IFR   IFR Intensif   IFR Très Intensif
Visi : 
Plafond : 
>= 8 km
>= 3000ft
5 à 8 km
1000 à 3000 ft
1500m à 5 km
500 à 1000 ft
800 à 1500m
200 à 500 ft
< 800m
< 200 ft
Symboles :   Orages  Brouillard  Fortes neiges  Fortes précipitations  Vent > 20 kt
SIGMETs :   Divers  Orages  Givrage  Turbulence  Onde Orograph.  Cendres Volcan.







- Altitude de l'aérodrome : 41 ft


LIRE - Pratica di Mare Air Base Pomezia

DERNIER METAR :
  • 220755Z 09008KT 9999 SCT020 SCT070 09/06 Q1000 RMK OVC VIS MIN 9999 WIND THR13 11009KT WIND THR31 09010KT BLU

METARs EXPIRÉS :
  • 220655Z 09008KT 9999 SCT020 SCT070 08/05 Q1000 RMK BKN VIS MIN 9999 WIND THR13 06007KT WIND THR31 09010KT BLU
  • 220555Z 06007KT 9999 SCT020 SCT070 06/06 Q1000 RMK BKN VIS MIN 9999 WIND THR13 07006KT WIND THR31 08007KT BLU

TAF COR TAF LIRE
Valide du 22 à 09h jusqu'au 22 à 18h UTC


220800Z 2209/2218 10015KT 9999 SCT020 SCT040
TEMPO 2212/2215 08015G25KT RA BKN020
TEMPO 2215/2218 5000 SHRA BR FEW020CB BKN025
Pas de NOTAMs connus pour ce terrain.
1 SIGMET publié pour la FIR Roma (LIRR) :
 
Orages noyés dans la masse
LIRR SIGMET 2 VALID 220800/221000 LIIB
LIRR ROMA FIR EMBD TS FCST WI N3752 E01130 - N3914 E01159 - N3842 E01518 - N3630 E01534 - N3631 E01131 - N3752 E01130 TOP ABV FL200 MOV E NC=



MET'MAP, la Météo Aéronautique d'un coup d'oeil ! - Copyright ORBIFLY Décembre 2007 - Disclaimer

ORBIFLY MET'MAP TEAM :

Programmation & Développement : Alexandra Zaïnal
Conception & Développement : Baudouin d'Aumeries
Co-Programmation & Développement : Marc-Olivier Méhu
Soutien technique & logistique : Manuel Goepfert

Contact : metmap@orbifly.com




SOURCES & CREDITS :

   NOAA